Time;durP1;ratioP1;P1;durP2;ratioP2;P2;SDS_P1;SDS_P2;PMS_P1;PMS_P2;Temp;Humidity;BMP_temperature;BMP_pressure;BME280_temperature;BME280_humidity;BME280_pressure;Samples;Min_cycle;Max_cycle;Signal;HPM_P1;HPM_P2
2021/03/28 00:00:56;;;;;;;19.27;3.67;;;6.60;99.90;;;;;;4907725;29;20197;-59
2021/03/28 00:03:28;;;;;;;13.87;3.80;;;6.60;99.90;;;;;;4913639;29;20213;-58
2021/03/28 00:06:11;;;;;;;16.00;4.00;;;6.60;99.90;;;;;;4913193;29;20619;-58
2021/03/28 00:08:41;;;;;;;11.97;3.67;;;6.60;99.90;;;;;;4909507;29;20668;-59
2021/03/28 00:11:15;;;;;;;11.37;3.73;;;6.50;99.90;;;;;;4909267;29;20208;-59
2021/03/28 00:13:49;;;;;;;14.80;4.00;;;6.50;99.90;;;;;;4910225;29;20695;-58
2021/03/28 00:16:18;;;;;;;16.47;4.27;;;6.50;99.90;;;;;;4911095;29;20658;-59
2021/03/28 00:19:02;;;;;;;12.37;3.97;;;6.40;99.90;;;;;;4921511;29;20200;-58
2021/03/28 00:21:32;;;;;;;13.30;3.27;;;6.40;99.90;;;;;;4912706;29;20296;-58
2021/03/28 00:24:14;;;;;;;12.30;3.77;;;6.40;99.90;;;;;;4911665;29;20673;-58
2021/03/28 00:26:45;;;;;;;8.43;3.50;;;6.40;99.90;;;;;;4918395;29;20208;-59
2021/03/28 00:29:23;;;;;;;18.87;4.30;;;6.30;99.90;;;;;;4912766;29;20225;-59
2021/03/28 00:31:57;;;;;;;14.10;3.80;;;6.20;99.90;;;;;;4921218;29;20287;-59
2021/03/28 00:34:29;;;;;;;17.70;3.80;;;6.10;99.90;;;;;;4911920;29;20213;-58
2021/03/28 00:36:59;;;;;;;11.60;3.43;;;6.10;99.90;;;;;;4914514;29;20206;-59
2021/03/28 00:39:41;;;;;;;16.57;3.73;;;6.10;99.90;;;;;;4916297;29;20201;-59
2021/03/28 00:42:19;;;;;;;17.13;4.23;;;6.20;99.90;;;;;;4913153;29;20631;-59
2021/03/28 00:44:52;;;;;;;11.83;3.50;;;6.10;99.90;;;;;;4908626;29;20284;-59
2021/03/28 00:47:23;;;;;;;8.93;3.67;;;6.10;99.90;;;;;;4913630;29;20261;-58
2021/03/28 00:50:07;;;;;;;15.27;3.93;;;6.20;99.90;;;;;;4915968;29;20201;-59
2021/03/28 00:52:36;;;;;;;13.63;3.90;;;6.10;99.90;;;;;;4912361;29;20202;-59
2021/03/28 00:55:17;;;;;;;17.53;4.20;;;6.10;99.90;;;;;;4912075;29;20289;-58
2021/03/28 00:57:57;;;;;;;8.40;3.87;;;6.00;99.90;;;;;;4903268;29;20197;-58
2021/03/28 01:00:52;;;;;;;18.93;4.03;;;6.10;99.90;;;;;;4913183;29;20244;-58
2021/03/28 01:03:33;;;;;;;16.07;3.77;;;6.10;99.90;;;;;;4912160;29;20229;-59
2021/03/28 01:06:06;;;;;;;11.67;3.80;;;6.00;99.90;;;;;;4911045;29;20201;-59
2021/03/28 01:08:38;;;;;;;10.50;4.00;;;6.00;99.90;;;;;;4912349;29;20237;-59
2021/03/28 01:11:12;;;;;;;12.50;3.90;;;6.00;99.90;;;;;;4911596;29;20197;-59
2021/03/28 01:14:17;;;;;;;12.40;3.93;;;6.00;99.90;;;;;;4912351;29;20699;-60
2021/03/28 01:17:16;;;;;;;12.00;3.80;;;6.00;99.90;;;;;;4917018;29;20189;-59
2021/03/28 01:20:07;;;;;;;11.73;3.43;;;6.00;99.90;;;;;;4890524;29;20264;-58
2021/03/28 01:22:52;;;;;;;7.33;3.33;;;6.00;99.90;;;;;;4884051;29;20288;-59
2021/03/28 01:25:55;;;;;;;10.60;3.27;;;6.10;99.90;;;;;;4903914;29;20382;-59
2021/03/28 01:28:28;;;;;;;12.30;3.70;;;6.10;99.90;;;;;;4927226;29;20299;-60
2021/03/28 01:31:18;;;;;;;8.60;3.40;;;6.10;99.90;;;;;;4910310;29;20213;-59
2021/03/28 01:33:49;;;;;;;9.30;3.60;;;6.10;99.90;;;;;;4903991;29;20198;-59
2021/03/28 01:36:23;;;;;;;15.03;3.50;;;6.10;99.90;;;;;;4915209;29;20239;-58
2021/03/28 01:39:10;;;;;;;12.57;3.87;;;6.20;99.90;;;;;;4919193;29;20237;-58
2021/03/28 01:41:43;;;;;;;7.13;3.10;;;6.20;99.90;;;;;;4910887;29;20720;-59
2021/03/28 01:44:23;;;;;;;8.50;3.30;;;6.10;99.90;;;;;;4911067;29;20198;-59
2021/03/28 01:47:04;;;;;;;8.60;3.53;;;6.20;99.90;;;;;;4908989;29;20292;-59
2021/03/28 01:50:23;;;;;;;8.90;3.40;;;6.20;99.90;;;;;;4914996;29;20573;-59
2021/03/28 01:53:08;;;;;;;10.40;3.53;;;6.20;99.90;;;;;;4917954;29;20288;-58
2021/03/28 01:55:43;;;;;;;8.43;3.50;;;6.30;99.90;;;;;;4913461;29;20236;-59
2021/03/28 01:58:22;;;;;;;12.77;3.40;;;6.30;99.90;;;;;;4909296;29;20661;-59
2021/03/28 02:01:12;;;;;;;7.23;3.70;;;6.30;99.90;;;;;;4909160;29;20209;-58
2021/03/28 02:03:52;;;;;;;11.60;3.57;;;6.30;99.90;;;;;;4914650;29;20300;-59
2021/03/28 02:07:01;;;;;;;7.00;3.33;;;6.30;99.90;;;;;;4910712;29;20284;-59
2021/03/28 02:09:38;;;;;;;10.73;3.43;;;6.30;99.90;;;;;;4907605;29;20264;-59
2021/03/28 02:12:11;;;;;;;12.17;3.63;;;6.30;99.90;;;;;;4910669;29;20208;-59
2021/03/28 02:15:17;;;;;;;10.43;4.33;;;6.30;99.90;;;;;;4920198;29;20295;-59
2021/03/28 02:17:54;;;;;;;12.20;3.73;;;6.30;99.90;;;;;;4906848;29;20213;-59
2021/03/28 02:20:40;;;;;;;7.23;3.47;;;6.40;99.90;;;;;;4910842;29;20740;-59
2021/03/28 02:23:16;;;;;;;8.90;3.80;;;6.50;99.90;;;;;;4908454;29;20252;-59
2021/03/28 02:25:52;;;;;;;8.80;3.10;;;6.60;99.90;;;;;;4907712;29;20201;-59
2021/03/28 02:28:41;;;;;;;5.87;3.47;;;6.60;99.90;;;;;;4916764;29;20197;-59
2021/03/28 02:31:20;;;;;;;8.50;3.70;;;6.70;99.90;;;;;;4909018;29;20226;-59
2021/03/28 02:33:54;;;;;;;8.90;3.63;;;6.80;99.90;;;;;;4910863;29;20605;-59
2021/03/28 02:36:27;;;;;;;9.47;3.23;;;6.80;99.90;;;;;;4910711;29;20277;-59
2021/03/28 02:39:15;;;;;;;11.43;3.63;;;6.80;99.90;;;;;;4910121;29;20613;-60
2021/03/28 02:42:08;;;;;;;15.57;4.63;;;6.80;99.90;;;;;;4908939;29;20289;-59
2021/03/28 02:44:58;;;;;;;14.20;3.47;;;6.90;99.90;;;;;;4912708;29;20312;-59
2021/03/28 02:47:49;;;;;;;11.13;4.07;;;6.90;99.90;;;;;;4907389;29;20201;-59
2021/03/28 02:51:03;;;;;;;9.80;3.53;;;6.90;99.90;;;;;;4914715;29;20202;-60
2021/03/28 02:53:48;;;;;;;9.53;3.40;;;6.90;99.90;;;;;;4911924;29;20197;-59
2021/03/28 02:56:31;;;;;;;6.70;3.73;;;6.90;99.90;;;;;;4910836;29;20293;-59
2021/03/28 02:59:18;;;;;;;9.30;3.30;;;6.90;99.90;;;;;;4916223;29;20676;-58
2021/03/28 03:02:11;;;;;;;7.83;3.47;;;6.80;99.90;;;;;;4907081;29;20193;-59
2021/03/28 03:05:00;;;;;;;9.03;3.67;;;6.80;99.90;;;;;;4907398;29;20288;-59
2021/03/28 03:07:44;;;;;;;8.23;3.40;;;6.80;99.90;;;;;;4910735;29;20625;-59
2021/03/28 03:10:29;;;;;;;5.77;3.50;;;6.80;99.90;;;;;;4912094;29;20301;-59
2021/03/28 03:13:08;;;;;;;5.30;3.20;;;6.80;99.90;;;;;;4909891;29;20199;-59
2021/03/28 03:15:37;;;;;;;9.83;3.53;;;6.80;99.90;;;;;;4902577;29;20724;-59
2021/03/28 03:18:48;;;;;;;6.53;3.60;;;6.80;99.90;;;;;;4911724;29;20217;-59
2021/03/28 03:21:58;;;;;;;9.13;3.30;;;6.90;99.90;;;;;;4896216;29;20615;-59
2021/03/28 03:24:46;;;;;;;6.07;3.30;;;7.00;99.90;;;;;;4896422;29;20258;-59
2021/03/28 03:27:49;;;;;;;11.67;3.50;;;7.10;99.90;;;;;;4911765;29;20221;-58
2021/03/28 03:30:48;;;;;;;5.83;3.50;;;7.20;99.90;;;;;;4910967;29;20726;-59
2021/03/28 03:33:53;;;;;;;5.77;3.20;;;7.30;99.90;;;;;;4905849;29;20669;-59
2021/03/28 03:36:56;;;;;;;6.67;3.63;;;7.40;99.90;;;;;;4898758;29;20672;-59
2021/03/28 03:39:52;;;;;;;7.17;3.50;;;7.40;99.90;;;;;;4898454;29;20213;-58
2021/03/28 03:42:57;;;;;;;7.87;3.20;;;7.40;99.90;;;;;;4899575;29;20570;-59
2021/03/28 03:45:48;;;;;;;11.27;3.60;;;7.40;99.90;;;;;;4908811;29;20652;-59
2021/03/28 03:48:27;;;;;;;8.03;3.20;;;7.50;99.90;;;;;;4923403;29;20198;-59
2021/03/28 03:51:05;;;;;;;10.77;3.73;;;7.50;99.90;;;;;;4915610;29;20229;-59
2021/03/28 03:53:47;;;;;;;5.23;3.30;;;7.50;99.90;;;;;;4925690;29;20291;-59
2021/03/28 03:56:23;;;;;;;12.73;3.40;;;7.60;99.90;;;;;;4918876;29;20217;-59
2021/03/28 03:59:07;;;;;;;8.77;4.03;;;7.60;99.90;;;;;;4929529;29;20229;-59
2021/03/28 04:01:39;;;;;;;8.70;3.43;;;7.50;99.90;;;;;;4907673;29;20252;-58
2021/03/28 04:04:13;;;;;;;6.77;3.20;;;7.60;99.90;;;;;;4914137;29;20257;-59
2021/03/28 04:07:13;;;;;;;6.17;3.60;;;7.60;99.90;;;;;;4912525;29;20317;-60
2021/03/28 04:09:52;;;;;;;7.47;3.67;;;7.70;99.90;;;;;;4882088;29;20209;-59
2021/03/28 04:12:54;;;;;;;9.30;3.80;;;7.70;99.90;;;;;;4912909;29;20209;-59
2021/03/28 04:15:41;;;;;;;19.27;3.43;;;7.70;99.90;;;;;;4912142;29;20287;-59
2021/03/28 04:18:43;;;;;;;7.77;3.60;;;7.70;99.90;;;;;;4912137;29;20297;-60
2021/03/28 04:21:24;;;;;;;9.83;3.97;;;7.60;99.90;;;;;;4915959;29;20293;-59
2021/03/28 04:24:09;;;;;;;10.20;3.93;;;7.70;99.90;;;;;;4913897;29;20221;-59
2021/03/28 04:27:04;;;;;;;7.60;3.73;;;7.70;99.90;;;;;;4913944;29;20296;-59
2021/03/28 04:29:33;;;;;;;10.47;4.20;;;7.70;99.90;;;;;;4920604;29;20241;-59
2021/03/28 04:32:25;;;;;;;15.67;4.20;;;7.70;99.90;;;;;;4910195;29;20289;-58
2021/03/28 04:35:30;;;;;;;4.83;3.27;;;7.70;99.90;;;;;;4913684;29;20676;-59
2021/03/28 04:38:13;;;;;;;9.93;3.70;;;7.60;99.90;;;;;;4916463;29;20272;-59
2021/03/28 04:41:10;;;;;;;10.00;4.10;;;7.70;99.90;;;;;;4911149;29;20189;-59
2021/03/28 04:44:13;;;;;;;9.60;3.73;;;7.70;99.90;;;;;;4912261;29;20269;-59
2021/03/28 04:47:19;;;;;;;9.00;3.83;;;7.60;99.90;;;;;;4892198;29;20213;-59
2021/03/28 04:50:20;;;;;;;6.90;3.60;;;7.70;99.90;;;;;;4912070;29;20189;-59
2021/03/28 04:53:16;;;;;;;9.00;3.53;;;7.70;99.90;;;;;;4910724;29;20292;-59
2021/03/28 04:56:10;;;;;;;9.27;3.70;;;7.70;99.90;;;;;;4920976;29;20232;-59
2021/03/28 04:59:13;;;;;;;9.10;4.27;;;7.70;99.90;;;;;;4905573;29;20227;-59
2021/03/28 05:01:57;;;;;;;9.07;3.60;;;7.80;99.90;;;;;;4907003;29;20197;-64
2021/03/28 05:04:57;;;;;;;8.03;3.67;;;7.70;99.90;;;;;;4914119;29;20221;-59
2021/03/28 05:08:00;;;;;;;9.07;3.50;;;7.70;99.90;;;;;;4912866;29;20292;-59
2021/03/28 05:11:04;;;;;;;8.50;3.90;;;7.80;99.90;;;;;;4912837;29;20243;-59
2021/03/28 05:14:18;;;;;;;12.80;4.13;;;7.80;99.90;;;;;;4912293;29;20253;-59
2021/03/28 05:17:30;;;;;;;9.10;3.77;;;7.70;99.90;;;;;;4913649;29;20237;-59
2021/03/28 05:20:23;;;;;;;10.70;4.20;;;7.70;99.90;;;;;;4887742;29;20205;-59
2021/03/28 05:23:31;;;;;;;8.57;3.70;;;7.70;99.90;;;;;;4913470;29;20370;-59
2021/03/28 05:26:48;;;;;;;15.43;4.70;;;7.70;99.90;;;;;;4905801;29;20665;-58
2021/03/28 05:29:49;;;;;;;8.13;3.40;;;7.60;99.90;;;;;;4914138;29;20750;-59
2021/03/28 05:32:50;;;;;;;10.37;4.23;;;7.50;99.90;;;;;;4909138;29;20621;-59
2021/03/28 05:36:08;;;;;;;13.40;4.27;;;7.50;99.90;;;;;;4908436;29;20288;-58
2021/03/28 05:38:54;;;;;;;9.23;3.57;;;7.40;99.90;;;;;;4884186;29;20210;-59
2021/03/28 05:41:52;;;;;;;7.27;4.20;;;7.40;99.90;;;;;;4915627;29;20249;-59
2021/03/28 05:44:49;;;;;;;7.50;3.90;;;7.40;99.90;;;;;;4934369;29;20232;-59
2021/03/28 05:47:32;;;;;;;10.13;4.03;;;7.40;99.90;;;;;;4911985;29;20193;-58
2021/03/28 05:50:22;;;;;;;16.17;4.53;;;7.40;99.90;;;;;;4914680;29;20288;-59
2021/03/28 05:53:33;;;;;;;7.70;3.93;;;7.40;99.90;;;;;;4913031;29;20198;-59
2021/03/28 05:56:31;;;;;;;14.40;4.60;;;7.60;99.90;;;;;;4919138;29;20227;-59
2021/03/28 05:59:25;;;;;;;7.90;4.53;;;7.60;99.90;;;;;;4910806;29;20712;-59
2021/03/28 06:02:22;;;;;;;8.60;4.20;;;7.70;99.90;;;;;;4909708;29;20288;-59
2021/03/28 06:05:41;;;;;;;10.47;4.40;;;7.80;99.90;;;;;;4910908;29;20194;-59
2021/03/28 06:08:38;;;;;;;13.00;4.43;;;7.80;99.90;;;;;;4908495;29;20640;-59
2021/03/28 06:11:38;;;;;;;11.63;4.87;;;7.90;99.90;;;;;;4910506;29;20205;-60
2021/03/28 06:14:41;;;;;;;13.57;6.37;;;8.00;99.90;;;;;;4878447;29;20228;-59
2021/03/28 06:17:23;;;;;;;8.70;4.00;;;8.10;99.90;;;;;;4909384;29;20679;-59
2021/03/28 06:20:27;;;;;;;10.10;4.23;;;8.10;99.90;;;;;;4913149;29;20505;-60
2021/03/28 06:23:45;;;;;;;6.33;3.70;;;8.20;99.90;;;;;;4908786;29;20221;-59
2021/03/28 06:26:58;;;;;;;8.13;4.03;;;8.10;99.90;;;;;;4914268;29;20253;-59
2021/03/28 06:30:03;;;;;;;9.50;4.13;;;8.20;99.90;;;;;;4913847;29;20229;-59
2021/03/28 06:33:07;;;;;;;8.63;4.00;;;8.20;99.90;;;;;;4911695;29;20572;-59
2021/03/28 06:36:15;;;;;;;11.73;5.23;;;8.20;99.90;;;;;;4909602;29;20296;-59
2021/03/28 06:39:13;;;;;;;11.93;3.97;;;8.30;99.90;;;;;;4910330;29;20615;-59
2021/03/28 06:42:12;;;;;;;12.77;4.43;;;8.30;99.90;;;;;;4906565;29;20232;-59
2021/03/28 06:45:12;;;;;;;8.80;4.00;;;8.30;99.90;;;;;;4898757;29;20324;-59
2021/03/28 06:48:22;;;;;;;12.47;4.13;;;8.40;99.90;;;;;;4881157;29;20347;-59
2021/03/28 06:51:06;;;;;;;10.87;4.00;;;8.40;99.90;;;;;;4912909;29;20301;-59
2021/03/28 06:54:28;;;;;;;9.23;3.93;;;8.50;99.90;;;;;;4911826;29;20246;-58
2021/03/28 06:57:42;;;;;;;19.77;4.70;;;8.50;99.90;;;;;;4909766;29;20297;-59
2021/03/28 07:00:30;;;;;;;15.33;4.83;;;8.60;99.90;;;;;;4911485;29;20216;-59
2021/03/28 07:03:26;;;;;;;10.80;4.30;;;8.70;99.90;;;;;;4910911;29;20213;-59
2021/03/28 07:06:02;;;;;;;7.73;4.20;;;8.80;99.90;;;;;;4897608;29;20305;-59
2021/03/28 07:08:59;;;;;;;9.03;3.90;;;8.90;99.90;;;;;;4922393;29;20200;-59
2021/03/28 07:11:40;;;;;;;13.73;4.63;;;9.00;99.90;;;;;;4910512;29;20305;-59
2021/03/28 07:14:48;;;;;;;6.60;4.33;;;9.10;99.90;;;;;;4908727;29;20205;-59
2021/03/28 07:17:52;;;;;;;13.43;4.50;;;9.10;99.90;;;;;;4904417;29;20225;-59
2021/03/28 07:20:50;;;;;;;13.87;4.30;;;9.20;99.90;;;;;;4912820;29;20494;-59
2021/03/28 07:23:40;;;;;;;12.67;3.63;;;9.40;99.90;;;;;;4911196;29;20276;-59
2021/03/28 07:26:16;;;;;;;12.80;4.17;;;9.50;99.90;;;;;;4915696;29;20233;-59
2021/03/28 07:29:34;;;;;;;25.17;8.57;;;9.40;99.90;;;;;;4915236;29;20311;-59
2021/03/28 07:32:31;;;;;;;17.77;4.50;;;9.70;99.90;;;;;;4855135;29;20301;-60
2021/03/28 07:35:35;;;;;;;13.77;3.77;;;10.40;99.90;;;;;;4891248;29;20236;-60
2021/03/28 07:38:35;;;;;;;13.53;4.47;;;11.00;99.90;;;;;;4923303;29;20774;-60
2021/03/28 07:41:40;;;;;;;12.80;4.30;;;11.30;99.90;;;;;;4913717;29;20443;-59
2021/03/28 07:44:45;;;;;;;10.30;3.90;;;11.60;99.90;;;;;;4911032;29;20737;-60
2021/03/28 07:47:49;;;;;;;7.20;3.90;;;11.70;99.90;;;;;;4928607;29;20229;-60
2021/03/28 07:50:51;;;;;;;9.43;3.60;;;12.00;99.90;;;;;;4914984;29;20287;-59
2021/03/28 07:53:35;;;;;;;12.03;3.63;;;12.10;99.90;;;;;;4914603;29;20217;-60
2021/03/28 07:56:22;;;;;;;7.87;3.70;;;12.60;99.90;;;;;;4913696;29;20461;-60
2021/03/28 07:59:02;;;;;;;8.40;3.87;;;12.70;99.90;;;;;;4912782;29;20201;-60
2021/03/28 08:01:56;;;;;;;10.50;3.30;;;12.90;99.90;;;;;;4913990;29;20265;-60
2021/03/28 08:05:03;;;;;;;10.93;3.97;;;13.40;99.90;;;;;;4912279;29;20272;-60
2021/03/28 08:07:46;;;;;;;8.57;3.30;;;13.50;99.90;;;;;;4911152;29;20197;-60
2021/03/28 08:10:49;;;;;;;7.83;3.53;;;13.80;99.90;;;;;;4909160;29;20229;-60
2021/03/28 08:13:58;;;;;;;10.47;3.53;;;14.50;99.90;;;;;;4911479;29;20189;-59
2021/03/28 08:17:00;;;;;;;11.70;3.23;;;14.80;99.90;;;;;;4895906;29;20213;-60
2021/03/28 08:20:06;;;;;;;8.50;3.13;;;14.50;99.90;;;;;;4910218;29;20237;-59
2021/03/28 08:22:52;;;;;;;9.10;2.97;;;14.30;99.90;;;;;;4908015;29;20237;-60
2021/03/28 08:25:36;;;;;;;11.80;3.50;;;13.60;99.90;;;;;;4925830;29;20280;-59
2021/03/28 08:28:43;;;;;;;8.83;3.13;;;13.20;99.90;;;;;;4911726;29;20296;-59
2021/03/28 08:31:20;;;;;;;9.37;2.77;;;13.40;99.90;;;;;;4870100;29;20235;-59
2021/03/28 08:34:31;;;;;;;9.73;3.07;;;14.30;99.90;;;;;;4872373;29;20333;-59
2021/03/28 08:37:16;;;;;;;10.33;2.93;;;14.30;99.90;;;;;;4916532;29;20229;-59
2021/03/28 08:39:59;;;;;;;9.23;2.83;;;14.20;99.90;;;;;;4909314;29;20289;-59
2021/03/28 08:42:58;;;;;;;6.33;2.53;;;14.30;99.90;;;;;;4912402;29;20634;-59
2021/03/28 08:45:31;;;;;;;8.77;2.90;;;14.20;99.90;;;;;;4912619;29;20673;-59
2021/03/28 08:48:21;;;;;;;6.37;2.43;;;14.10;99.90;;;;;;4914745;29;20268;-60
2021/03/28 08:51:00;;;;;;;9.67;2.63;;;14.60;99.90;;;;;;4912844;29;20193;-60
2021/03/28 08:53:51;;;;;;;6.97;2.23;;;14.70;99.90;;;;;;4910415;29;20296;-60
2021/03/28 08:56:47;;;;;;;7.60;2.57;;;15.60;99.90;;;;;;4912186;29;20217;-60
2021/03/28 08:59:32;;;;;;;10.53;2.73;;;16.00;99.90;;;;;;4912205;29;20209;-58
2021/03/28 09:02:10;;;;;;;8.60;2.43;;;15.90;99.90;;;;;;4910156;29;20284;-60
2021/03/28 09:04:59;;;;;;;8.03;2.63;;;16.30;99.90;;;;;;4912281;29;20572;-59
2021/03/28 09:07:40;;;;;;;8.90;2.30;;;16.40;99.90;;;;;;4908664;29;20209;-59
2021/03/28 09:10:47;;;;;;;8.67;2.80;;;16.40;99.90;;;;;;4913297;29;20202;-59
2021/03/28 09:13:34;;;;;;;6.37;2.10;;;16.60;99.90;;;;;;4882940;29;20209;-60
2021/03/28 09:16:13;;;;;;;4.83;2.20;;;16.80;99.90;;;;;;4907350;29;20197;-59
2021/03/28 09:19:09;;;;;;;6.30;2.80;;;16.20;99.90;;;;;;4919606;29;20194;-59
2021/03/28 09:21:47;;;;;;;8.13;2.30;;;16.30;99.90;;;;;;4915020;29;20335;-60
2021/03/28 09:24:26;;;;;;;5.20;2.53;;;15.90;99.90;;;;;;4910832;29;20209;-59
2021/03/28 09:27:15;;;;;;;9.57;2.63;;;15.30;99.90;;;;;;4913604;29;20305;-59
2021/03/28 09:29:55;;;;;;;9.97;2.63;;;14.90;99.90;;;;;;4910556;29;20328;-59
2021/03/28 09:33:13;;;;;;;10.73;2.40;;;14.60;99.90;;;;;;4912930;29;20185;-59
2021/03/28 09:36:16;;;;;;;6.23;2.40;;;14.60;99.90;;;;;;4856697;29;20206;-60
2021/03/28 09:39:11;;;;;;;7.00;2.13;;;14.50;99.90;;;;;;4909120;29;20201;-59
2021/03/28 09:42:07;;;;;;;6.57;2.50;;;14.80;99.90;;;;;;4909094;29;20229;-60
2021/03/28 09:44:47;;;;;;;12.93;2.97;;;15.10;99.90;;;;;;4906944;29;20232;-60
2021/03/28 09:47:27;;;;;;;9.43;2.40;;;15.00;99.90;;;;;;4910816;29;20293;-60
2021/03/28 09:50:06;;;;;;;8.33;3.03;;;15.00;99.90;;;;;;4922688;29;20620;-60
2021/03/28 09:52:57;;;;;;;10.50;2.47;;;15.20;99.90;;;;;;4914236;29;20236;-60
2021/03/28 09:55:44;;;;;;;8.40;2.30;;;15.00;99.90;;;;;;4912533;29;20236;-60
2021/03/28 09:58:50;;;;;;;8.20;2.50;;;15.10;99.90;;;;;;4905990;29;20288;-60
2021/03/28 10:01:38;;;;;;;8.40;2.40;;;15.80;99.90;;;;;;4915665;29;20791;-60
2021/03/28 10:04:19;;;;;;;6.87;2.13;;;16.40;99.90;;;;;;4917480;29;20242;-60
2021/03/28 10:06:59;;;;;;;7.27;2.37;;;17.10;99.90;;;;;;4920734;29;20194;-60
2021/03/28 10:09:59;;;;;;;6.70;2.13;;;17.10;99.90;;;;;;4913403;29;20198;-60
2021/03/28 10:12:34;;;;;;;4.57;2.53;;;17.70;99.90;;;;;;4907807;29;20316;-60
2021/03/28 10:15:07;;;;;;;8.70;2.57;;;17.70;99.90;;;;;;4912439;29;20296;-61
2021/03/28 10:17:46;;;;;;;6.07;2.30;;;17.60;99.90;;;;;;4911970;29;20271;-60
2021/03/28 10:20:35;;;;;;;7.80;2.10;;;17.30;99.90;;;;;;4904427;29;20196;-60
2021/03/28 10:23:32;;;;;;;7.90;2.20;;;17.10;99.90;;;;;;4911553;29;20193;-60
2021/03/28 10:26:29;;;;;;;7.23;2.03;;;16.60;99.90;;;;;;4905296;29;20193;-60
2021/03/28 10:29:29;;;;;;;6.03;2.43;;;17.10;99.90;;;;;;4909975;29;20229;-61
2021/03/28 10:32:07;;;;;;;10.67;2.87;;;16.50;99.90;;;;;;4907354;29;20302;-59
2021/03/28 10:35:22;;;;;;;5.73;2.67;;;15.80;99.90;;;;;;4914239;29;20291;-59
2021/03/28 10:38:20;;;;;;;8.40;2.87;;;15.40;99.90;;;;;;4912608;29;20190;-60
2021/03/28 10:40:56;;;;;;;12.80;2.60;;;15.40;99.90;;;;;;4895280;29;20216;-59
2021/03/28 10:43:43;;;;;;;11.70;2.50;;;15.20;99.90;;;;;;4922827;29;20220;-60
2021/03/28 10:46:29;;;;;;;5.60;2.10;;;14.90;99.90;;;;;;4908554;29;20873;-60
2021/03/28 10:49:27;;;;;;;5.80;2.20;;;15.40;99.90;;;;;;4913645;29;20189;-61
2021/03/28 10:52:41;;;;;;;4.27;2.07;;;16.40;99.90;;;;;;4907505;29;20263;-61
2021/03/28 10:55:29;;;;;;;6.83;2.53;;;16.70;99.90;;;;;;4907177;29;20220;-60
2021/03/28 10:58:30;;;;;;;6.50;2.40;;;16.10;99.90;;;;;;4909443;29;20193;-60
2021/03/28 11:01:44;;;;;;;7.13;2.40;;;15.50;99.90;;;;;;4911688;29;20288;-60
2021/03/28 11:04:50;;;;;;;6.87;2.40;;;15.30;99.90;;;;;;4911611;29;20216;-60
2021/03/28 11:07:49;;;;;;;4.50;2.10;;;15.10;99.90;;;;;;4925441;29;20594;-60
2021/03/28 11:10:39;;;;;;;7.27;2.60;;;15.10;99.90;;;;;;4911121;29;20201;-60
2021/03/28 11:13:23;;;;;;;7.63;2.40;;;15.00;99.90;;;;;;4910906;29;20671;-60
2021/03/28 11:16:16;;;;;;;11.00;2.97;;;14.70;99.90;;;;;;4906783;29;20232;-60
2021/03/28 11:19:20;;;;;;;7.60;2.63;;;14.40;99.90;;;;;;4907899;29;20683;-60
2021/03/28 11:22:05;;;;;;;8.80;2.20;;;14.60;99.90;;;;;;4909249;29;20264;-61
2021/03/28 11:25:04;;;;;;;11.33;2.33;;;15.00;99.90;;;;;;4909296;29;20759;-61
2021/03/28 11:28:20;;;;;;;7.80;2.77;;;15.30;99.90;;;;;;4916299;29;20272;-60
2021/03/28 11:30:53;;;;;;;12.80;2.50;;;15.20;99.90;;;;;;4901759;29;20213;-61
2021/03/28 11:33:27;;;;;;;8.10;2.40;;;15.60;99.90;;;;;;4908181;29;20201;-59
2021/03/28 11:36:17;;;;;;;7.10;2.53;;;15.50;99.90;;;;;;4909451;29;20323;-60
2021/03/28 11:39:14;;;;;;;8.47;2.53;;;15.20;99.90;;;;;;4908058;29;20224;-61
2021/03/28 11:41:56;;;;;;;6.67;2.27;;;15.00;99.90;;;;;;4911128;29;20686;-61
2021/03/28 11:44:38;;;;;;;8.67;2.40;;;15.10;99.90;;;;;;4909929;29;20229;-61
2021/03/28 11:47:27;;;;;;;6.10;2.63;;;15.20;99.90;;;;;;4906368;29;20257;-60
2021/03/28 11:50:03;;;;;;;9.80;2.53;;;15.30;99.90;;;;;;4910843;29;20305;-60
2021/03/28 11:52:48;;;;;;;8.13;2.43;;;14.90;99.90;;;;;;4908502;29;20193;-61
2021/03/28 11:55:31;;;;;;;8.80;2.80;;;14.60;99.90;;;;;;4904541;29;20202;-61
2021/03/28 11:58:22;;;;;;;6.03;2.30;;;14.40;99.90;;;;;;4900697;29;20300;-59
2021/03/28 12:00:52;;;;;;;8.37;2.80;;;14.40;99.90;;;;;;4908712;29;20296;-61
2021/03/28 12:03:40;;;;;;;11.50;2.50;;;14.40;99.90;;;;;;4899793;29;20225;-60
2021/03/28 12:06:46;;;;;;;7.43;2.43;;;14.30;99.90;;;;;;4910289;29;20648;-60
2021/03/28 12:09:28;;;;;;;12.53;3.00;;;14.20;99.90;;;;;;4917550;29;20290;-60
2021/03/28 12:11:59;;;;;;;9.63;2.53;;;14.30;99.90;;;;;;4904622;29;20216;-60
2021/03/28 12:14:32;;;;;;;9.03;2.10;;;14.70;99.90;;;;;;4911660;29;20336;-61
2021/03/28 12:17:25;;;;;;;6.00;2.50;;;15.10;99.90;;;;;;4909230;29;20268;-63
2021/03/28 12:20:16;;;;;;;5.73;2.33;;;15.40;99.90;;;;;;4906249;29;20611;-63
2021/03/28 12:23:00;;;;;;;6.80;2.60;;;15.40;99.90;;;;;;4907347;29;20189;-63
2021/03/28 12:25:34;;;;;;;6.43;2.20;;;15.50;99.90;;;;;;4906023;29;20225;-63
2021/03/28 12:28:20;;;;;;;7.50;2.13;;;15.60;99.90;;;;;;4915802;29;20188;-64
2021/03/28 12:30:48;;;;;;;5.90;2.10;;;15.90;99.90;;;;;;4904823;29;20221;-63
2021/03/28 12:33:18;;;;;;;8.77;2.60;;;15.70;99.90;;;;;;4908911;29;20677;-63
2021/03/28 12:36:03;;;;;;;7.23;2.17;;;15.70;99.90;;;;;;4906212;29;20210;-63
2021/03/28 12:38:54;;;;;;;6.60;2.13;;;15.50;99.90;;;;;;4908779;29;20289;-63
2021/03/28 12:41:32;;;;;;;6.10;2.20;;;15.60;99.90;;;;;;4904612;29;20209;-62
2021/03/28 12:44:25;;;;;;;7.77;2.30;;;15.50;99.90;;;;;;4909344;29;20217;-63
2021/03/28 12:47:07;;;;;;;8.63;2.40;;;15.70;99.90;;;;;;4906533;29;20209;-63
2021/03/28 12:49:45;;;;;;;6.53;2.33;;;15.80;99.90;;;;;;4905178;29;20289;-62
2021/03/28 12:52:25;;;;;;;6.70;2.33;;;15.70;99.90;;;;;;4903987;29;20253;-61
2021/03/28 12:55:32;;;;;;;11.23;2.90;;;15.60;99.90;;;;;;4901588;29;20194;-65
2021/03/28 12:58:19;;;;;;;8.53;2.30;;;15.60;99.90;;;;;;4895835;29;21192;-62
2021/03/28 13:00:55;;;;;;;6.43;2.67;;;15.10;99.90;;;;;;4905799;29;20193;-62
2021/03/28 13:03:30;;;;;;;7.20;2.00;;;15.00;99.90;;;;;;4912587;29;20205;-61
2021/03/28 13:06:24;;;;;;;4.00;2.63;;;14.90;99.90;;;;;;4905633;29;20193;-62
2021/03/28 13:08:58;;;;;;;3.90;2.30;;;14.90;99.90;;;;;;4910486;29;20207;-63
2021/03/28 13:11:47;;;;;;;6.23;2.37;;;14.90;99.90;;;;;;4908928;29;20209;-62
2021/03/28 13:14:31;;;;;;;6.77;2.10;;;15.10;99.90;;;;;;4906710;29;20195;-62
2021/03/28 13:17:11;;;;;;;9.13;2.40;;;15.30;99.90;;;;;;4907378;29;20205;-63
2021/03/28 13:19:40;;;;;;;10.13;2.50;;;15.30;99.90;;;;;;4906875;29;21404;-62
2021/03/28 13:22:32;;;;;;;5.27;2.53;;;15.20;99.90;;;;;;4905739;29;20280;-62
2021/03/28 13:25:21;;;;;;;4.10;2.23;;;15.30;99.90;;;;;;4905962;29;20669;-62
2021/03/28 13:28:25;;;;;;;4.73;2.47;;;15.50;99.90;;;;;;4909981;29;20212;-62
2021/03/28 13:31:12;;;;;;;5.37;2.20;;;15.40;99.90;;;;;;4905738;29;20335;-62
2021/03/28 13:33:42;;;;;;;7.40;2.40;;;15.40;99.90;;;;;;4907244;29;20690;-62
2021/03/28 13:36:16;;;;;;;9.20;2.47;;;15.60;99.90;;;;;;4907383;29;21537;-62
2021/03/28 13:39:01;;;;;;;5.17;2.30;;;15.80;99.90;;;;;;4907832;29;20205;-62
2021/03/28 13:41:33;;;;;;;7.17;2.00;;;15.70;99.90;;;;;;4907043;29;20288;-61
2021/03/28 13:44:07;;;;;;;10.83;2.90;;;15.70;99.90;;;;;;4907421;29;20312;-62
2021/03/28 13:46:44;;;;;;;5.33;2.40;;;15.50;99.90;;;;;;4908875;29;20258;-65
2021/03/28 13:49:25;;;;;;;8.40;2.43;;;15.20;99.90;;;;;;4908557;29;20211;-62
2021/03/28 13:52:11;;;;;;;7.77;2.27;;;15.30;99.90;;;;;;4909547;29;20190;-65
2021/03/28 13:54:40;;;;;;;6.00;2.10;;;15.30;99.90;;;;;;4909284;29;20804;-62
2021/03/28 13:57:13;;;;;;;5.63;2.23;;;15.40;99.90;;;;;;4916365;29;20229;-62
2021/03/28 14:00:06;;;;;;;3.47;1.93;;;15.60;99.90;;;;;;4908542;29;20198;-62
2021/03/28 14:02:38;;;;;;;5.07;2.20;;;15.70;99.90;;;;;;4919449;29;20205;-62
2021/03/28 14:05:09;;;;;;;6.43;2.37;;;15.60;99.90;;;;;;4908612;29;20224;-62
2021/03/28 14:07:48;;;;;;;7.23;2.53;;;15.40;99.90;;;;;;4916718;29;20296;-62
2021/03/28 14:10:20;;;;;;;4.67;1.90;;;15.60;99.90;;;;;;4909915;29;20568;-63
2021/03/28 14:12:53;;;;;;;6.10;2.63;;;15.80;99.90;;;;;;4918365;29;20655;-62
2021/03/28 14:15:33;;;;;;;5.40;2.33;;;15.90;99.90;;;;;;4912391;29;20741;-63
2021/03/28 14:18:04;;;;;;;7.03;2.83;;;15.90;99.90;;;;;;4912283;29;20205;-61
2021/03/28 14:20:34;;;;;;;9.30;2.43;;;16.00;99.90;;;;;;4903138;29;20206;-62
2021/03/28 14:23:19;;;;;;;8.23;2.53;;;16.00;99.90;;;;;;4923125;29;20195;-62
2021/03/28 14:25:51;;;;;;;7.23;2.60;;;16.20;99.90;;;;;;4906992;29;20229;-62
2021/03/28 14:28:45;;;;;;;4.90;2.60;;;15.90;99.90;;;;;;4899640;29;20673;-62
2021/03/28 14:31:25;;;;;;;3.60;2.13;;;15.90;99.90;;;;;;4907095;29;20205;-62
2021/03/28 14:34:06;;;;;;;6.70;2.70;;;16.00;99.90;;;;;;4910533;29;20293;-63
2021/03/28 14:36:58;;;;;;;6.70;2.60;;;16.20;99.90;;;;;;4915973;29;20363;-62
2021/03/28 14:40:12;;;;;;;7.03;2.77;;;16.30;99.90;;;;;;4910841;29;20713;-62